Statsraad Lehmkuhl — LDRG — position and weather

sailwx.info

Track history (hours):
 
Tides and Currents Weather Stations Pressure Air Temp Water Temp Dewpoint Dewpoint Depression Visibility Wind Speed Wind Dir Waves Ship Positions

Statsraad Lehmkuhl (Norway)

Ship's website: http://www.lehmkuhl.no/eng/index.cfm

Last reported at 2020-Sep-26 07:58 UTC. Time now 2020-Sep-26 08:06 UTC.
Position N 59°52' E 010°36'.

Length 85 m; draft 5.2 m.

Type: Sailing vessel. MMSI: 258113000.

Date/timePositionNaut miles runAvg speedWind from/ knotsBaromVisibWave heightAir tempDewpointWater temp
2020-Sep-26 07:58N 59°52' E 010°36'0 0.0
2020-Sep-26 07:28N 59°52' E 010°36'0 0.0
2020-Sep-26 06:58N 59°52' E 010°36'0 0.0
2020-Sep-26 06:29N 59°52' E 010°36'0 0.0
2020-Sep-26 05:29N 59°52' E 010°36'0 0.0
2020-Sep-26 00:30N 59°52' E 010°36'0 0.0
2020-Sep-25 23:30N 59°52' E 010°36'0 0.0
2020-Sep-25 20:29N 59°52' E 010°36'0 0.0
2020-Sep-25 19:30N 59°52' E 010°36'0 0.0
2020-Sep-25 14:30N 59°52' E 010°36'2 4.9
2020-Sep-25 14:01N 59°50' E 010°36'5 9.6
2020-Sep-25 13:30N 59°45' E 010°35'39 7.9
2020-Sep-25 08:30N 59°06' E 010°42'9 8.5
2020-Sep-25 07:30N 58°57' E 010°39'4 8.1
2020-Sep-25 07:00N 58°53' E 010°38'9 9.1
2020-Sep-25 06:00N 58°44' E 010°38'8 3.8
2020-Sep-25 03:57N 58°36' E 010°39'16 4.7
2020-Sep-25 00:30N 58°20' E 010°40'44 5.7
2020-Sep-24 16:45N 57°52' E 009°37'8 8.6
2020-Sep-24 15:49N 57°51' E 009°22'3 8.7
2020-Sep-24 15:30N 57°51' E 009°17'14 9.6
2020-Sep-24 14:00N 57°50' E 008°50'75 9.7
2020-Sep-24 06:15N 56°44' E 007°45'6 6.7
2020-Sep-24 05:24N 56°39' E 007°41'226 6.1
2020-Sep-22 16:30N 53°19' E 004°38'3 6.9
2020-Sep-22 16:00N 53°15' E 004°36'3 6.8
2020-Sep-22 15:30N 53°12' E 004°34'19 5.4
2020-Sep-22 12:00N 52°54' E 004°38'9 8.7
2020-Sep-22 11:00N 53°00' E 004°48'2 1.6
2020-Sep-22 09:59N 53°01' E 004°50'0 0.0
2020-Sep-22 09:26N 53°01' E 004°50'0 0.0
2020-Sep-22 08:00N 53°01' E 004°50'0 0.0
2020-Sep-22 07:28N 53°01' E 004°50'0 0.0
2020-Sep-22 06:58N 53°01' E 004°50'0 0.0
2020-Sep-22 04:59N 53°01' E 004°50'0 0.0
2020-Sep-22 04:00N 53°01' E 004°50'0 0.0
2020-Sep-22 03:24N 53°01' E 004°50'0 0.0
2020-Sep-21 23:00N 53°01' E 004°50'0 0.0
2020-Sep-21 22:00N 53°01' E 004°50'0 0.0
2020-Sep-21 21:30N 53°01' E 004°50'0 0.0
2020-Sep-21 20:30N 53°01' E 004°50'0 0.0
2020-Sep-21 17:31N 53°01' E 004°50'0 0.0
2020-Sep-21 16:00N 53°01' E 004°50'4 2.0
2020-Sep-21 13:58N 52°57' E 004°47'0 0.0
2020-Sep-21 10:30N 52°57' E 004°47'0 0.0
2020-Sep-21 08:28N 52°57' E 004°47'0 0.0
2020-Sep-21 07:29N 52°57' E 004°47'7 3.5
2020-Sep-21 05:30N 52°53' E 004°38'24 6.1
2020-Sep-21 01:30N 52°49' E 003°58'7 7.1
2020-Sep-21 00:30N 52°56' E 003°60'8 8.1
2020-Sep-20 23:30N 53°01' E 004°09'33 8.2
2020-Sep-20 19:30N 53°30' E 004°36'4 7.9
2020-Sep-20 19:00N 53°34' E 004°38'8 8.1
2020-Sep-20 18:00N 53°41' E 004°43'4 7.9
2020-Sep-20 17:30N 53°45' E 004°45'4 7.7
2020-Sep-20 17:00N 53°48' E 004°48'4 7.9
2020-Sep-20 16:30N 53°52' E 004°50'4 8.0
2020-Sep-20 16:00N 53°56' E 004°52'12 8.1
2020-Sep-20 14:30N 54°08' E 004°58'22 7.1
2020-Sep-20 11:28N 54°29' E 004°60'8 8.0
2020-Sep-20 10:29N 54°37' E 005°00'16 8.0
2020-Sep-20 08:30N 54°53' E 004°60'102 8.4
2020-Sep-19 20:19N 56°34' E 004°49'15 8.7
2020-Sep-19 18:34N 56°50' E 004°46'9 8.8
2020-Sep-19 17:29N 56°59' E 004°45'9 8.9
2020-Sep-19 16:26N 57°08' E 004°44'23 9.3
2020-Sep-19 14:00N 57°31' E 004°43'28 9.1
2020-Sep-19 10:59N 57°58' E 004°39'9 9.1
2020-Sep-19 10:00N 58°07' E 004°37'22 8.7
2020-Sep-19 07:25N 58°30' E 004°33'4 9.0
2020-Sep-19 07:00N 58°33' E 004°33'19 9.6
2020-Sep-19 05:00N 58°53' E 004°35'510.2
2020-Sep-19 04:30N 58°58' E 004°36'2010.2
2020-Sep-19 02:31N 59°18' E 004°39'1010.3
2020-Sep-19 01:30N 59°28' E 004°43'19 9.5
2020-Sep-18 23:30N 59°46' E 004°55'9 8.6
2020-Sep-18 22:30N 59°55' E 004°56'20 8.0
2020-Sep-18 20:01N 60°13' E 005°10'8 7.6
2020-Sep-18 18:59N 60°21' E 005°10'5 5.3
2020-Sep-18 18:00N 60°24' E 005°19'0 0.0
2020-Sep-18 15:00N 60°24' E 005°19'5 3.4
2020-Sep-18 13:30N 60°21' E 005°10'15 5.0
2020-Sep-18 10:30N 60°08' E 004°56'15 5.1
2020-Sep-18 07:30N 60°09' E 004°25'3 6.4
2020-Sep-18 07:00N 60°09' E 004°18'12 5.9
2020-Sep-18 05:00N 60°09' E 003°54'11 5.3
2020-Sep-18 03:00N 60°09' E 003°33'8 5.7
2020-Sep-18 01:30N 60°07' E 003°17'3 6.4
2020-Sep-18 01:00N 60°06' E 003°10'38 6.9
2020-Sep-17 19:30N 60°06' E 001°54'19 7.5
2020-Sep-17 17:00N 60°05' E 001°16'12 8.3
2020-Sep-17 15:30N 60°04' E 000°52'9 8.6
2020-Sep-17 14:30N 60°03' E 000°34'22 8.8
2020-Sep-17 12:00N 60°03' W 000°10'30 7.4
2020-Sep-17 07:58N 60°09' W 001°08'  
Track history (hours):
 
Tides and Currents Weather Stations Pressure Air Temp Water Temp Dewpoint Dewpoint Depression Visibility Wind Speed Wind Dir Waves Ship Positions

Statsraad Lehmkuhl (Norway)

Ship's website: http://www.lehmkuhl.no/eng/index.cfm

Last reported at 2020-Sep-26 07:58 UTC. Time now 2020-Sep-26 08:06 UTC.
Position N 59°52' E 010°36'.

Length 85 m; draft 5.2 m.

Type: Sailing vessel. MMSI: 258113000.

Date/timePositionNaut miles runAvg speedWind from/ knotsBaromVisibWave heightAir tempDewpointWater temp
2020-Sep-26 07:58N 59°52' E 010°36'0 0.0
2020-Sep-26 07:28N 59°52' E 010°36'0 0.0
2020-Sep-26 06:58N 59°52' E 010°36'0 0.0
2020-Sep-26 06:29N 59°52' E 010°36'0 0.0
2020-Sep-26 05:29N 59°52' E 010°36'0 0.0
2020-Sep-26 00:30N 59°52' E 010°36'0 0.0
2020-Sep-25 23:30N 59°52' E 010°36'0 0.0
2020-Sep-25 20:29N 59°52' E 010°36'0 0.0
2020-Sep-25 19:30N 59°52' E 010°36'0 0.0
2020-Sep-25 14:30N 59°52' E 010°36'2 4.9
2020-Sep-25 14:01N 59°50' E 010°36'5 9.6
2020-Sep-25 13:30N 59°45' E 010°35'39 7.9
2020-Sep-25 08:30N 59°06' E 010°42'9 8.5
2020-Sep-25 07:30N 58°57' E 010°39'4 8.1
2020-Sep-25 07:00N 58°53' E 010°38'9 9.1
2020-Sep-25 06:00N 58°44' E 010°38'8 3.8
2020-Sep-25 03:57N 58°36' E 010°39'16 4.7
2020-Sep-25 00:30N 58°20' E 010°40'44 5.7
2020-Sep-24 16:45N 57°52' E 009°37'8 8.6
2020-Sep-24 15:49N 57°51' E 009°22'3 8.7
2020-Sep-24 15:30N 57°51' E 009°17'14 9.6
2020-Sep-24 14:00N 57°50' E 008°50'75 9.7
2020-Sep-24 06:15N 56°44' E 007°45'6 6.7
2020-Sep-24 05:24N 56°39' E 007°41'226 6.1
2020-Sep-22 16:30N 53°19' E 004°38'3 6.9
2020-Sep-22 16:00N 53°15' E 004°36'3 6.8
2020-Sep-22 15:30N 53°12' E 004°34'19 5.4
2020-Sep-22 12:00N 52°54' E 004°38'9 8.7
2020-Sep-22 11:00N 53°00' E 004°48'2 1.6
2020-Sep-22 09:59N 53°01' E 004°50'0 0.0
2020-Sep-22 09:26N 53°01' E 004°50'0 0.0
2020-Sep-22 08:00N 53°01' E 004°50'0 0.0
2020-Sep-22 07:28N 53°01' E 004°50'0 0.0
2020-Sep-22 06:58N 53°01' E 004°50'0 0.0
2020-Sep-22 04:59N 53°01' E 004°50'0 0.0
2020-Sep-22 04:00N 53°01' E 004°50'0 0.0
2020-Sep-22 03:24N 53°01' E 004°50'0 0.0
2020-Sep-21 23:00N 53°01' E 004°50'0 0.0
2020-Sep-21 22:00N 53°01' E 004°50'0 0.0
2020-Sep-21 21:30N 53°01' E 004°50'0 0.0
2020-Sep-21 20:30N 53°01' E 004°50'0 0.0
2020-Sep-21 17:31N 53°01' E 004°50'0 0.0
2020-Sep-21 16:00N 53°01' E 004°50'4 2.0
2020-Sep-21 13:58N 52°57' E 004°47'0 0.0
2020-Sep-21 10:30N 52°57' E 004°47'0 0.0
2020-Sep-21 08:28N 52°57' E 004°47'0 0.0
2020-Sep-21 07:29N 52°57' E 004°47'7 3.5
2020-Sep-21 05:30N 52°53' E 004°38'24 6.1
2020-Sep-21 01:30N 52°49' E 003°58'7 7.1
2020-Sep-21 00:30N 52°56' E 003°60'8 8.1
2020-Sep-20 23:30N 53°01' E 004°09'33 8.2
2020-Sep-20 19:30N 53°30' E 004°36'4 7.9
2020-Sep-20 19:00N 53°34' E 004°38'8 8.1
2020-Sep-20 18:00N 53°41' E 004°43'4 7.9
2020-Sep-20 17:30N 53°45' E 004°45'4 7.7
2020-Sep-20 17:00N 53°48' E 004°48'4 7.9
2020-Sep-20 16:30N 53°52' E 004°50'4 8.0
2020-Sep-20 16:00N 53°56' E 004°52'12 8.1
2020-Sep-20 14:30N 54°08' E 004°58'22 7.1
2020-Sep-20 11:28N 54°29' E 004°60'8 8.0
2020-Sep-20 10:29N 54°37' E 005°00'16 8.0
2020-Sep-20 08:30N 54°53' E 004°60'102 8.4
2020-Sep-19 20:19N 56°34' E 004°49'15 8.7
2020-Sep-19 18:34N 56°50' E 004°46'9 8.8
2020-Sep-19 17:29N 56°59' E 004°45'9 8.9
2020-Sep-19 16:26N 57°08' E 004°44'23 9.3
2020-Sep-19 14:00N 57°31' E 004°43'28 9.1
2020-Sep-19 10:59N 57°58' E 004°39'9 9.1
2020-Sep-19 10:00N 58°07' E 004°37'22 8.7
2020-Sep-19 07:25N 58°30' E 004°33'4 9.0
2020-Sep-19 07:00N 58°33' E 004°33'19 9.6
2020-Sep-19 05:00N 58°53' E 004°35'510.2
2020-Sep-19 04:30N 58°58' E 004°36'2010.2
2020-Sep-19 02:31N 59°18' E 004°39'1010.3
2020-Sep-19 01:30N 59°28' E 004°43'19 9.5
2020-Sep-18 23:30N 59°46' E 004°55'9 8.6
2020-Sep-18 22:30N 59°55' E 004°56'20 8.0
2020-Sep-18 20:01N 60°13' E 005°10'8 7.6
2020-Sep-18 18:59N 60°21' E 005°10'5 5.3
2020-Sep-18 18:00N 60°24' E 005°19'0 0.0
2020-Sep-18 15:00N 60°24' E 005°19'5 3.4
2020-Sep-18 13:30N 60°21' E 005°10'15 5.0
2020-Sep-18 10:30N 60°08' E 004°56'15 5.1
2020-Sep-18 07:30N 60°09' E 004°25'3 6.4
2020-Sep-18 07:00N 60°09' E 004°18'12 5.9
2020-Sep-18 05:00N 60°09' E 003°54'11 5.3
2020-Sep-18 03:00N 60°09' E 003°33'8 5.7
2020-Sep-18 01:30N 60°07' E 003°17'3 6.4
2020-Sep-18 01:00N 60°06' E 003°10'38 6.9
2020-Sep-17 19:30N 60°06' E 001°54'19 7.5
2020-Sep-17 17:00N 60°05' E 001°16'12 8.3
2020-Sep-17 15:30N 60°04' E 000°52'9 8.6
2020-Sep-17 14:30N 60°03' E 000°34'22 8.8
2020-Sep-17 12:00N 60°03' W 000°10'30 7.4
2020-Sep-17 07:58N 60°09' W 001°08'  

Dump ship's entire track history